sensor_id;sensor_type;location;lat;lon;timestamp;temperature;humidity
4429;DHT22;2227;47.810;8.810;2023-12-22T04:48:24;7.20;99.90
4429;DHT22;2227;47.810;8.810;2023-12-22T04:50:51;7.20;99.90
4429;DHT22;2227;47.810;8.810;2023-12-22T04:53:18;7.10;99.90
4429;DHT22;2227;47.810;8.810;2023-12-22T04:55:45;7.10;99.90
4429;DHT22;2227;47.810;8.810;2023-12-22T04:58:12;7.20;99.90
4429;DHT22;2227;47.810;8.810;2023-12-22T05:00:39;7.10;99.90
4429;DHT22;2227;47.810;8.810;2023-12-22T05:03:06;7.10;99.90
4429;DHT22;2227;47.810;8.810;2023-12-22T05:05:33;7.10;99.90
4429;DHT22;2227;47.810;8.810;2023-12-22T05:08:00;7.10;99.90
4429;DHT22;2227;47.810;8.810;2023-12-22T05:10:26;7.10;99.90
4429;DHT22;2227;47.810;8.810;2023-12-22T05:12:53;7.10;99.90
4429;DHT22;2227;47.810;8.810;2023-12-22T05:15:20;7.10;99.90
4429;DHT22;2227;47.810;8.810;2023-12-22T05:17:47;7.20;99.90
4429;DHT22;2227;47.810;8.810;2023-12-22T05:20:14;7.20;99.90
4429;DHT22;2227;47.810;8.810;2023-12-22T05:22:41;7.20;99.90
4429;DHT22;2227;47.810;8.810;2023-12-22T05:25:08;7.20;99.90
4429;DHT22;2227;47.810;8.810;2023-12-22T05:27:36;7.20;99.90
4429;DHT22;2227;47.810;8.810;2023-12-22T05:30:03;7.20;99.90
4429;DHT22;2227;47.810;8.810;2023-12-22T05:32:31;7.20;99.90
4429;DHT22;2227;47.810;8.810;2023-12-22T05:34:58;7.30;99.90
4429;DHT22;2227;47.810;8.810;2023-12-22T05:37:25;7.30;99.90
4429;DHT22;2227;47.810;8.810;2023-12-22T05:39:52;7.20;99.90
4429;DHT22;2227;47.810;8.810;2023-12-22T05:42:18;7.40;99.90
4429;DHT22;2227;47.810;8.810;2023-12-22T05:44:45;7.20;99.90
4429;DHT22;2227;47.810;8.810;2023-12-22T05:47:16;7.10;99.90
4429;DHT22;2227;47.810;8.810;2023-12-22T05:49:43;7.10;99.90
4429;DHT22;2227;47.810;8.810;2023-12-22T05:52:12;7.10;99.90
4429;DHT22;2227;47.810;8.810;2023-12-22T05:54:38;7.20;99.90
4429;DHT22;2227;47.810;8.810;2023-12-22T05:57:05;7.20;99.90
4429;DHT22;2227;47.810;8.810;2023-12-22T05:59:33;7.20;99.90
4429;DHT22;2227;47.810;8.810;2023-12-22T06:02:01;7.20;99.90
4429;DHT22;2227;47.810;8.810;2023-12-22T06:04:29;7.10;99.90
4429;DHT22;2227;47.810;8.810;2023-12-22T06:06:56;7.10;99.90
4429;DHT22;2227;47.810;8.810;2023-12-22T06:09:23;7.10;99.90
4429;DHT22;2227;47.810;8.810;2023-12-22T06:11:50;7.10;99.90
4429;DHT22;2227;47.810;8.810;2023-12-22T06:14:17;7.20;99.90
4429;DHT22;2227;47.810;8.810;2023-12-22T06:16:43;7.10;99.90
4429;DHT22;2227;47.810;8.810;2023-12-22T06:19:10;7.10;99.90
4429;DHT22;2227;47.810;8.810;2023-12-22T06:21:37;7.10;99.90
4429;DHT22;2227;47.810;8.810;2023-12-22T06:24:05;7.10;99.90
4429;DHT22;2227;47.810;8.810;2023-12-22T06:26:32;7.10;99.90
4429;DHT22;2227;47.810;8.810;2023-12-22T06:28:59;7.00;99.90
4429;DHT22;2227;47.810;8.810;2023-12-22T06:31:26;6.90;99.90
4429;DHT22;2227;47.810;8.810;2023-12-22T06:33:53;7.00;99.90
4429;DHT22;2227;47.810;8.810;2023-12-22T06:36:24;7.00;99.90
4429;DHT22;2227;47.810;8.810;2023-12-22T06:38:52;7.00;99.90
4429;DHT22;2227;47.810;8.810;2023-12-22T06:43:50;7.10;99.90
4429;DHT22;2227;47.810;8.810;2023-12-22T06:46:18;7.10;99.90
4429;DHT22;2227;47.810;8.810;2023-12-22T06:48:46;7.10;99.90
4429;DHT22;2227;47.810;8.810;2023-12-22T06:51:26;7.10;99.90
4429;DHT22;2227;47.810;8.810;2023-12-22T06:53:54;7.10;99.90
4429;DHT22;2227;47.810;8.810;2023-12-22T06:56:25;7.20;99.90
4429;DHT22;2227;47.810;8.810;2023-12-22T06:58:54;7.20;99.90
4429;DHT22;2227;47.810;8.810;2023-12-22T07:01:29;7.20;99.90
4429;DHT22;2227;47.810;8.810;2023-12-22T07:03:58;7.20;99.90
4429;DHT22;2227;47.810;8.810;2023-12-22T07:06:30;7.30;99.90
4429;DHT22;2227;47.810;8.810;2023-12-22T07:11:48;7.20;99.90
4429;DHT22;2227;47.810;8.810;2023-12-22T07:14:15;7.20;99.90
4429;DHT22;2227;47.810;8.810;2023-12-22T07:16:42;7.20;99.90
4429;DHT22;2227;47.810;8.810;2023-12-22T07:19:10;7.20;99.90
4429;DHT22;2227;47.810;8.810;2023-12-22T07:21:40;7.20;99.90
4429;DHT22;2227;47.810;8.810;2023-12-22T07:24:09;7.20;99.90
4429;DHT22;2227;47.810;8.810;2023-12-22T07:26:36;7.40;99.90
4429;DHT22;2227;47.810;8.810;2023-12-22T07:29:04;7.40;99.90
4429;DHT22;2227;47.810;8.810;2023-12-22T07:31:30;7.40;99.90
4429;DHT22;2227;47.810;8.810;2023-12-22T07:33:57;7.40;99.90
4429;DHT22;2227;47.810;8.810;2023-12-22T07:36:24;7.30;99.90
4429;DHT22;2227;47.810;8.810;2023-12-22T07:38:51;7.20;99.90
4429;DHT22;2227;47.810;8.810;2023-12-22T07:41:18;7.20;99.90
4429;DHT22;2227;47.810;8.810;2023-12-22T07:43:46;7.10;99.90
4429;DHT22;2227;47.810;8.810;2023-12-22T07:46:19;7.10;99.90
4429;DHT22;2227;47.810;8.810;2023-12-22T07:48:46;7.10;99.90
4429;DHT22;2227;47.810;8.810;2023-12-22T07:51:15;7.10;99.90
4429;DHT22;2227;47.810;8.810;2023-12-22T07:53:41;7.10;99.90
4429;DHT22;2227;47.810;8.810;2023-12-22T07:56:08;7.20;99.90
4429;DHT22;2227;47.810;8.810;2023-12-22T07:58:38;7.30;99.90
4429;DHT22;2227;47.810;8.810;2023-12-22T08:01:05;7.30;99.90
4429;DHT22;2227;47.810;8.810;2023-12-22T08:03:34;7.20;99.90
4429;DHT22;2227;47.810;8.810;2023-12-22T08:06:01;7.40;99.90
4429;DHT22;2227;47.810;8.810;2023-12-22T08:08:28;7.40;99.90
4429;DHT22;2227;47.810;8.810;2023-12-22T08:10:55;7.30;99.90
4429;DHT22;2227;47.810;8.810;2023-12-22T08:13:22;7.20;99.90
4429;DHT22;2227;47.810;8.810;2023-12-22T08:15:49;7.30;99.90
4429;DHT22;2227;47.810;8.810;2023-12-22T08:18:17;7.30;99.90
4429;DHT22;2227;47.810;8.810;2023-12-22T08:20:44;7.30;99.90
4429;DHT22;2227;47.810;8.810;2023-12-22T08:23:14;7.30;99.90
4429;DHT22;2227;47.810;8.810;2023-12-22T08:25:41;7.40;99.90
4429;DHT22;2227;47.810;8.810;2023-12-22T08:28:10;7.40;99.90
4429;DHT22;2227;47.810;8.810;2023-12-22T08:30:38;7.30;99.90
4429;DHT22;2227;47.810;8.810;2023-12-22T08:33:05;7.50;99.90
4429;DHT22;2227;47.810;8.810;2023-12-22T08:35:32;7.50;99.90
4429;DHT22;2227;47.810;8.810;2023-12-22T08:37:59;7.50;99.90
4429;DHT22;2227;47.810;8.810;2023-12-22T08:40:26;7.40;99.90
4429;DHT22;2227;47.810;8.810;2023-12-22T08:42:54;7.60;99.90
4429;DHT22;2227;47.810;8.810;2023-12-22T08:45:21;7.50;99.90
4429;DHT22;2227;47.810;8.810;2023-12-22T08:47:48;7.50;99.90
4429;DHT22;2227;47.810;8.810;2023-12-22T08:50:15;7.50;99.90
4429;DHT22;2227;47.810;8.810;2023-12-22T08:52:42;7.50;99.90
4429;DHT22;2227;47.810;8.810;2023-12-22T08:55:09;7.60;99.90
4429;DHT22;2227;47.810;8.810;2023-12-22T08:57:35;7.60;99.90
4429;DHT22;2227;47.810;8.810;2023-12-22T09:00:04;7.60;99.90
4429;DHT22;2227;47.810;8.810;2023-12-22T09:02:31;7.50;99.90
4429;DHT22;2227;47.810;8.810;2023-12-22T09:04:58;7.50;99.90
4429;DHT22;2227;47.810;8.810;2023-12-22T09:07:24;7.60;99.90
4429;DHT22;2227;47.810;8.810;2023-12-22T09:09:51;7.70;99.90
4429;DHT22;2227;47.810;8.810;2023-12-22T09:12:18;7.80;99.90
4429;DHT22;2227;47.810;8.810;2023-12-22T09:14:45;7.70;99.90
4429;DHT22;2227;47.810;8.810;2023-12-22T09:17:12;7.80;99.90
4429;DHT22;2227;47.810;8.810;2023-12-22T09:19:38;7.70;99.90
4429;DHT22;2227;47.810;8.810;2023-12-22T09:22:05;7.80;99.90
4429;DHT22;2227;47.810;8.810;2023-12-22T09:24:32;7.80;99.90
4429;DHT22;2227;47.810;8.810;2023-12-22T09:26:59;7.80;99.90
4429;DHT22;2227;47.810;8.810;2023-12-22T09:29:30;7.90;99.90
4429;DHT22;2227;47.810;8.810;2023-12-22T09:31:58;7.90;99.90
4429;DHT22;2227;47.810;8.810;2023-12-22T09:34:26;7.90;99.90
4429;DHT22;2227;47.810;8.810;2023-12-22T09:36:54;7.90;99.90
4429;DHT22;2227;47.810;8.810;2023-12-22T09:39:21;7.90;99.90
4429;DHT22;2227;47.810;8.810;2023-12-22T09:41:49;7.90;99.90
4429;DHT22;2227;47.810;8.810;2023-12-22T09:44:20;7.90;99.90
4429;DHT22;2227;47.810;8.810;2023-12-22T09:46:48;8.00;99.90
4429;DHT22;2227;47.810;8.810;2023-12-22T09:49:20;8.10;99.90
4429;DHT22;2227;47.810;8.810;2023-12-22T09:51:49;8.30;99.90
4429;DHT22;2227;47.810;8.810;2023-12-22T09:54:17;8.30;99.90
4429;DHT22;2227;47.810;8.810;2023-12-22T09:56:45;8.30;99.90
4429;DHT22;2227;47.810;8.810;2023-12-22T09:59:13;8.20;99.90
4429;DHT22;2227;47.810;8.810;2023-12-22T10:01:44;8.20;99.90
4429;DHT22;2227;47.810;8.810;2023-12-22T10:04:14;8.30;99.90
4429;DHT22;2227;47.810;8.810;2023-12-22T10:06:41;8.20;99.90
4429;DHT22;2227;47.810;8.810;2023-12-22T10:09:08;8.30;99.90
4429;DHT22;2227;47.810;8.810;2023-12-22T10:11:38;8.30;99.90
4429;DHT22;2227;47.810;8.810;2023-12-22T10:14:06;8.30;99.90
4429;DHT22;2227;47.810;8.810;2023-12-22T10:16:34;8.30;99.90
4429;DHT22;2227;47.810;8.810;2023-12-22T10:19:03;8.20;99.90
4429;DHT22;2227;47.810;8.810;2023-12-22T10:21:30;8.20;99.90
4429;DHT22;2227;47.810;8.810;2023-12-22T10:24:00;8.20;99.90
4429;DHT22;2227;47.810;8.810;2023-12-22T10:26:28;8.20;99.90
4429;DHT22;2227;47.810;8.810;2023-12-22T10:28:55;8.30;99.90
4429;DHT22;2227;47.810;8.810;2023-12-22T10:31:22;8.20;99.90
4429;DHT22;2227;47.810;8.810;2023-12-22T10:33:49;8.30;99.90
4429;DHT22;2227;47.810;8.810;2023-12-22T10:36:16;8.30;99.90
4429;DHT22;2227;47.810;8.810;2023-12-22T10:38:43;8.30;99.90
4429;DHT22;2227;47.810;8.810;2023-12-22T10:41:11;8.40;99.90
4429;DHT22;2227;47.810;8.810;2023-12-22T10:43:39;8.30;99.90
4429;DHT22;2227;47.810;8.810;2023-12-22T10:46:07;8.30;99.90
4429;DHT22;2227;47.810;8.810;2023-12-22T10:48:34;8.50;99.90
4429;DHT22;2227;47.810;8.810;2023-12-22T10:51:01;8.50;99.90
4429;DHT22;2227;47.810;8.810;2023-12-22T10:53:28;8.40;99.90
4429;DHT22;2227;47.810;8.810;2023-12-22T10:55:56;8.20;99.90
4429;DHT22;2227;47.810;8.810;2023-12-22T10:58:24;8.20;99.90
4429;DHT22;2227;47.810;8.810;2023-12-22T11:00:51;8.20;99.90
4429;DHT22;2227;47.810;8.810;2023-12-22T11:03:25;8.20;99.90
4429;DHT22;2227;47.810;8.810;2023-12-22T11:05:54;8.10;99.90
4429;DHT22;2227;47.810;8.810;2023-12-22T11:08:26;8.00;99.90
4429;DHT22;2227;47.810;8.810;2023-12-22T11:10:57;8.00;99.90
4429;DHT22;2227;47.810;8.810;2023-12-22T11:13:25;7.90;99.90
4429;DHT22;2227;47.810;8.810;2023-12-22T11:15:54;8.00;99.90
4429;DHT22;2227;47.810;8.810;2023-12-22T11:18:22;7.80;99.90
4429;DHT22;2227;47.810;8.810;2023-12-22T11:20:50;7.90;99.90
4429;DHT22;2227;47.810;8.810;2023-12-22T11:23:18;8.00;99.90
4429;DHT22;2227;47.810;8.810;2023-12-22T11:25:48;7.90;99.90
4429;DHT22;2227;47.810;8.810;2023-12-22T11:28:18;8.00;99.90
4429;DHT22;2227;47.810;8.810;2023-12-22T11:30:46;8.10;99.90
4429;DHT22;2227;47.810;8.810;2023-12-22T11:33:13;8.10;99.90
4429;DHT22;2227;47.810;8.810;2023-12-22T11:35:41;8.00;99.90
4429;DHT22;2227;47.810;8.810;2023-12-22T11:38:10;8.10;99.90
4429;DHT22;2227;47.810;8.810;2023-12-22T11:40:38;8.00;99.90
4429;DHT22;2227;47.810;8.810;2023-12-22T11:43:06;8.00;99.90
4429;DHT22;2227;47.810;8.810;2023-12-22T11:45:33;8.00;99.90
4429;DHT22;2227;47.810;8.810;2023-12-22T11:48:10;8.00;99.90
4429;DHT22;2227;47.810;8.810;2023-12-22T11:50:38;7.90;99.90
4429;DHT22;2227;47.810;8.810;2023-12-22T11:53:22;7.90;99.90
4429;DHT22;2227;47.810;8.810;2023-12-22T11:56:06;8.00;99.90
4429;DHT22;2227;47.810;8.810;2023-12-22T11:58:46;7.90;99.90
4429;DHT22;2227;47.810;8.810;2023-12-22T12:01:25;7.90;99.90
4429;DHT22;2227;47.810;8.810;2023-12-22T12:04:01;7.90;99.90
4429;DHT22;2227;47.810;8.810;2023-12-22T12:08:57;7.90;99.90
4429;DHT22;2227;47.810;8.810;2023-12-22T12:14:41;7.90;99.90
4429;DHT22;2227;47.810;8.810;2023-12-22T12:17:08;7.80;99.90
4429;DHT22;2227;47.810;8.810;2023-12-22T12:19:40;7.80;99.90
4429;DHT22;2227;47.810;8.810;2023-12-22T12:22:11;7.80;99.90
4429;DHT22;2227;47.810;8.810;2023-12-22T12:24:41;7.80;99.90
4429;DHT22;2227;47.810;8.810;2023-12-22T12:27:08;7.80;99.90
4429;DHT22;2227;47.810;8.810;2023-12-22T12:29:35;7.90;99.90
4429;DHT22;2227;47.810;8.810;2023-12-22T12:32:03;7.80;99.90
4429;DHT22;2227;47.810;8.810;2023-12-22T12:34:31;7.80;99.90
4429;DHT22;2227;47.810;8.810;2023-12-22T12:37:00;7.90;99.90
4429;DHT22;2227;47.810;8.810;2023-12-22T12:39:30;7.90;99.90
4429;DHT22;2227;47.810;8.810;2023-12-22T12:42:00;8.00;99.90
4429;DHT22;2227;47.810;8.810;2023-12-22T12:44:30;8.00;99.90
4429;DHT22;2227;47.810;8.810;2023-12-22T12:47:14;8.00;99.90
4429;DHT22;2227;47.810;8.810;2023-12-22T12:49:41;8.00;99.90
4429;DHT22;2227;47.810;8.810;2023-12-22T12:52:13;8.00;99.90
4429;DHT22;2227;47.810;8.810;2023-12-22T12:54:41;8.10;99.90
4429;DHT22;2227;47.810;8.810;2023-12-22T12:57:16;8.10;99.90
4429;DHT22;2227;47.810;8.810;2023-12-22T12:59:50;8.10;99.90
4429;DHT22;2227;47.810;8.810;2023-12-22T13:02:17;8.10;99.90
4429;DHT22;2227;47.810;8.810;2023-12-22T13:04:45;8.10;99.90
4429;DHT22;2227;47.810;8.810;2023-12-22T13:07:12;8.10;99.90
4429;DHT22;2227;47.810;8.810;2023-12-22T13:09:41;8.30;99.90
4429;DHT22;2227;47.810;8.810;2023-12-22T13:12:09;8.20;99.90
4429;DHT22;2227;47.810;8.810;2023-12-22T13:14:36;8.30;99.90
4429;DHT22;2227;47.810;8.810;2023-12-22T13:17:03;8.30;99.90
4429;DHT22;2227;47.810;8.810;2023-12-22T13:19:30;8.50;99.90
4429;DHT22;2227;47.810;8.810;2023-12-22T13:21:58;8.40;99.90
4429;DHT22;2227;47.810;8.810;2023-12-22T13:24:27;8.40;99.90
4429;DHT22;2227;47.810;8.810;2023-12-22T13:27:01;8.40;99.90
4429;DHT22;2227;47.810;8.810;2023-12-22T13:29:30;8.40;99.90
4429;DHT22;2227;47.810;8.810;2023-12-22T13:32:08;8.50;99.90
4429;DHT22;2227;47.810;8.810;2023-12-22T13:34:34;8.50;99.90
4429;DHT22;2227;47.810;8.810;2023-12-22T13:37:03;8.50;99.90
4429;DHT22;2227;47.810;8.810;2023-12-22T13:39:30;8.50;99.90
4429;DHT22;2227;47.810;8.810;2023-12-22T13:41:57;8.60;99.90
4429;DHT22;2227;47.810;8.810;2023-12-22T13:44:24;8.60;99.90
4429;DHT22;2227;47.810;8.810;2023-12-22T13:46:51;8.60;99.90
4429;DHT22;2227;47.810;8.810;2023-12-22T13:49:18;8.60;99.90
4429;DHT22;2227;47.810;8.810;2023-12-22T13:51:45;8.60;99.90
4429;DHT22;2227;47.810;8.810;2023-12-22T13:54:14;8.60;99.90
4429;DHT22;2227;47.810;8.810;2023-12-22T13:56:41;8.60;99.90
4429;DHT22;2227;47.810;8.810;2023-12-22T13:59:09;8.70;99.90
4429;DHT22;2227;47.810;8.810;2023-12-22T14:01:37;8.70;99.90
4429;DHT22;2227;47.810;8.810;2023-12-22T14:04:04;8.70;99.90
4429;DHT22;2227;47.810;8.810;2023-12-22T14:06:31;8.80;99.90
4429;DHT22;2227;47.810;8.810;2023-12-22T14:08:58;8.80;99.90
4429;DHT22;2227;47.810;8.810;2023-12-22T14:11:25;8.90;99.90
4429;DHT22;2227;47.810;8.810;2023-12-22T14:13:55;8.90;99.90
4429;DHT22;2227;47.810;8.810;2023-12-22T14:16:21;8.90;99.90
4429;DHT22;2227;47.810;8.810;2023-12-22T14:18:48;9.00;99.90
4429;DHT22;2227;47.810;8.810;2023-12-22T14:21:15;8.90;99.90
4429;DHT22;2227;47.810;8.810;2023-12-22T14:23:42;8.90;99.90
4429;DHT22;2227;47.810;8.810;2023-12-22T14:26:09;9.00;99.90
4429;DHT22;2227;47.810;8.810;2023-12-22T14:28:37;9.00;99.90
4429;DHT22;2227;47.810;8.810;2023-12-22T14:31:04;9.00;99.90
4429;DHT22;2227;47.810;8.810;2023-12-22T14:33:30;8.90;99.90
4429;DHT22;2227;47.810;8.810;2023-12-22T14:35:57;8.90;99.90
4429;DHT22;2227;47.810;8.810;2023-12-22T14:38:24;9.00;99.90
4429;DHT22;2227;47.810;8.810;2023-12-22T14:40:51;8.90;99.90
4429;DHT22;2227;47.810;8.810;2023-12-22T14:43:18;8.80;99.90
4429;DHT22;2227;47.810;8.810;2023-12-22T14:45:45;8.80;99.90
4429;DHT22;2227;47.810;8.810;2023-12-22T14:48:12;8.80;99.90
4429;DHT22;2227;47.810;8.810;2023-12-22T14:50:39;8.70;99.90
4429;DHT22;2227;47.810;8.810;2023-12-22T14:53:06;8.70;99.90
4429;DHT22;2227;47.810;8.810;2023-12-22T14:55:35;8.60;99.90
4429;DHT22;2227;47.810;8.810;2023-12-22T14:58:02;8.60;99.90
4429;DHT22;2227;47.810;8.810;2023-12-22T15:00:29;8.50;99.90
4429;DHT22;2227;47.810;8.810;2023-12-22T15:02:57;8.50;99.90
4429;DHT22;2227;47.810;8.810;2023-12-22T15:05:24;8.40;99.90
4429;DHT22;2227;47.810;8.810;2023-12-22T15:07:58;8.50;99.90
4429;DHT22;2227;47.810;8.810;2023-12-22T15:10:25;8.50;99.90
4429;DHT22;2227;47.810;8.810;2023-12-22T15:12:52;8.50;99.90
4429;DHT22;2227;47.810;8.810;2023-12-22T15:15:19;8.60;99.90
4429;DHT22;2227;47.810;8.810;2023-12-22T15:17:46;8.70;99.90
4429;DHT22;2227;47.810;8.810;2023-12-22T15:20:13;8.70;99.90
4429;DHT22;2227;47.810;8.810;2023-12-22T15:22:40;8.60;99.90
4429;DHT22;2227;47.810;8.810;2023-12-22T15:25:07;8.50;99.90
4429;DHT22;2227;47.810;8.810;2023-12-22T15:27:34;8.50;99.90
4429;DHT22;2227;47.810;8.810;2023-12-22T15:30:04;8.50;99.90
4429;DHT22;2227;47.810;8.810;2023-12-22T15:32:31;8.70;99.90
4429;DHT22;2227;47.810;8.810;2023-12-22T15:34:57;8.70;99.90
4429;DHT22;2227;47.810;8.810;2023-12-22T15:37:24;8.60;99.90
4429;DHT22;2227;47.810;8.810;2023-12-22T15:39:51;8.70;99.90
4429;DHT22;2227;47.810;8.810;2023-12-22T15:42:18;8.60;99.90
4429;DHT22;2227;47.810;8.810;2023-12-22T15:44:45;8.70;99.90
4429;DHT22;2227;47.810;8.810;2023-12-22T15:47:11;8.70;99.90
4429;DHT22;2227;47.810;8.810;2023-12-22T15:49:38;8.70;99.90
4429;DHT22;2227;47.810;8.810;2023-12-22T15:52:06;8.70;99.90
4429;DHT22;2227;47.810;8.810;2023-12-22T15:54:34;8.80;99.90
4429;DHT22;2227;47.810;8.810;2023-12-22T15:57:01;8.80;99.90
4429;DHT22;2227;47.810;8.810;2023-12-22T15:59:29;8.70;99.90
4429;DHT22;2227;47.810;8.810;2023-12-22T16:01:55;8.70;99.90
4429;DHT22;2227;47.810;8.810;2023-12-22T16:04:22;8.70;99.90
4429;DHT22;2227;47.810;8.810;2023-12-22T16:06:49;8.80;99.90
4429;DHT22;2227;47.810;8.810;2023-12-22T16:09:16;8.90;99.90
4429;DHT22;2227;47.810;8.810;2023-12-22T16:11:43;8.90;99.90
4429;DHT22;2227;47.810;8.810;2023-12-22T16:14:09;8.80;99.90
4429;DHT22;2227;47.810;8.810;2023-12-22T16:16:36;8.80;99.90
4429;DHT22;2227;47.810;8.810;2023-12-22T16:19:03;8.80;99.90
4429;DHT22;2227;47.810;8.810;2023-12-22T16:21:33;8.80;99.90
4429;DHT22;2227;47.810;8.810;2023-12-22T16:24:00;8.70;99.90
4429;DHT22;2227;47.810;8.810;2023-12-22T16:26:26;8.80;99.90
4429;DHT22;2227;47.810;8.810;2023-12-22T16:28:53;8.80;99.90
4429;DHT22;2227;47.810;8.810;2023-12-22T16:31:20;8.80;99.90
4429;DHT22;2227;47.810;8.810;2023-12-22T16:33:50;8.80;99.90
4429;DHT22;2227;47.810;8.810;2023-12-22T16:36:17;8.80;99.90
4429;DHT22;2227;47.810;8.810;2023-12-22T16:38:44;8.80;99.90
4429;DHT22;2227;47.810;8.810;2023-12-22T16:41:11;8.90;99.90
4429;DHT22;2227;47.810;8.810;2023-12-22T16:43:38;8.90;99.90
4429;DHT22;2227;47.810;8.810;2023-12-22T16:46:07;8.90;99.90
4429;DHT22;2227;47.810;8.810;2023-12-22T16:48:33;8.90;99.90
4429;DHT22;2227;47.810;8.810;2023-12-22T16:51:00;8.90;99.90
4429;DHT22;2227;47.810;8.810;2023-12-22T16:53:28;8.80;99.90
4429;DHT22;2227;47.810;8.810;2023-12-22T16:55:55;8.80;99.90
4429;DHT22;2227;47.810;8.810;2023-12-22T16:58:22;8.80;99.90
4429;DHT22;2227;47.810;8.810;2023-12-22T17:00:49;8.90;99.90
4429;DHT22;2227;47.810;8.810;2023-12-22T17:03:36;8.90;99.90
4429;DHT22;2227;47.810;8.810;2023-12-22T17:06:04;8.90;99.90
4429;DHT22;2227;47.810;8.810;2023-12-22T17:08:32;8.90;99.90
4429;DHT22;2227;47.810;8.810;2023-12-22T17:11:01;9.00;99.90
4429;DHT22;2227;47.810;8.810;2023-12-22T17:13:28;9.00;99.90
4429;DHT22;2227;47.810;8.810;2023-12-22T17:15:55;9.00;99.90
4429;DHT22;2227;47.810;8.810;2023-12-22T17:18:21;9.00;99.90
4429;DHT22;2227;47.810;8.810;2023-12-22T17:20:49;8.90;99.90
4429;DHT22;2227;47.810;8.810;2023-12-22T17:23:30;8.90;99.90
4429;DHT22;2227;47.810;8.810;2023-12-22T17:25:57;8.90;99.90
4429;DHT22;2227;47.810;8.810;2023-12-22T17:28:24;8.90;99.90
4429;DHT22;2227;47.810;8.810;2023-12-22T17:30:51;8.80;99.90
4429;DHT22;2227;47.810;8.810;2023-12-22T17:33:18;8.90;99.90
4429;DHT22;2227;47.810;8.810;2023-12-22T17:35:45;8.80;99.90
4429;DHT22;2227;47.810;8.810;2023-12-22T17:38:12;8.80;99.90
4429;DHT22;2227;47.810;8.810;2023-12-22T17:40:38;8.80;99.90
4429;DHT22;2227;47.810;8.810;2023-12-22T17:43:05;8.80;99.90
4429;DHT22;2227;47.810;8.810;2023-12-22T17:45:33;8.70;99.90
4429;DHT22;2227;47.810;8.810;2023-12-22T17:48:00;8.70;99.90
4429;DHT22;2227;47.810;8.810;2023-12-22T17:50:27;8.70;99.90
4429;DHT22;2227;47.810;8.810;2023-12-22T17:52:54;8.60;99.90
4429;DHT22;2227;47.810;8.810;2023-12-22T17:55:20;8.60;99.90
4429;DHT22;2227;47.810;8.810;2023-12-22T17:57:47;8.50;99.90
4429;DHT22;2227;47.810;8.810;2023-12-22T18:00:15;8.60;99.90
4429;DHT22;2227;47.810;8.810;2023-12-22T18:02:42;8.70;99.90
4429;DHT22;2227;47.810;8.810;2023-12-22T18:05:09;8.60;99.90
4429;DHT22;2227;47.810;8.810;2023-12-22T18:07:36;8.70;99.90
4429;DHT22;2227;47.810;8.810;2023-12-22T18:10:03;8.60;99.90
4429;DHT22;2227;47.810;8.810;2023-12-22T18:12:30;8.50;99.90
4429;DHT22;2227;47.810;8.810;2023-12-22T18:15:01;8.60;99.90
4429;DHT22;2227;47.810;8.810;2023-12-22T18:17:29;8.70;99.90
4429;DHT22;2227;47.810;8.810;2023-12-22T18:19:56;8.80;99.90
4429;DHT22;2227;47.810;8.810;2023-12-22T18:22:23;8.60;99.90
4429;DHT22;2227;47.810;8.810;2023-12-22T18:24:50;8.50;99.90
4429;DHT22;2227;47.810;8.810;2023-12-22T18:27:17;8.40;99.90
4429;DHT22;2227;47.810;8.810;2023-12-22T18:29:46;8.30;99.90
4429;DHT22;2227;47.810;8.810;2023-12-22T18:32:13;8.30;99.90
4429;DHT22;2227;47.810;8.810;2023-12-22T18:34:39;8.20;99.90
4429;DHT22;2227;47.810;8.810;2023-12-22T18:37:06;8.20;99.90
4429;DHT22;2227;47.810;8.810;2023-12-22T18:39:33;8.20;99.90
4429;DHT22;2227;47.810;8.810;2023-12-22T18:42:00;8.30;99.90
4429;DHT22;2227;47.810;8.810;2023-12-22T18:44:27;8.40;99.90
4429;DHT22;2227;47.810;8.810;2023-12-22T18:46:54;8.40;99.90
4429;DHT22;2227;47.810;8.810;2023-12-22T18:49:20;8.50;99.90
4429;DHT22;2227;47.810;8.810;2023-12-22T18:51:47;8.40;99.90
4429;DHT22;2227;47.810;8.810;2023-12-22T18:54:14;8.40;99.90
4429;DHT22;2227;47.810;8.810;2023-12-22T18:56:41;8.40;99.90
4429;DHT22;2227;47.810;8.810;2023-12-22T18:59:08;8.40;99.90
4429;DHT22;2227;47.810;8.810;2023-12-22T19:01:35;8.30;99.90
4429;DHT22;2227;47.810;8.810;2023-12-22T19:04:19;8.30;99.90
4429;DHT22;2227;47.810;8.810;2023-12-22T19:06:46;8.40;99.90
4429;DHT22;2227;47.810;8.810;2023-12-22T19:09:13;8.50;99.90
4429;DHT22;2227;47.810;8.810;2023-12-22T19:11:39;8.50;99.90
4429;DHT22;2227;47.810;8.810;2023-12-22T19:14:10;8.50;99.90
4429;DHT22;2227;47.810;8.810;2023-12-22T19:16:37;8.40;99.90
4429;DHT22;2227;47.810;8.810;2023-12-22T19:19:07;8.40;99.90
4429;DHT22;2227;47.810;8.810;2023-12-22T19:21:34;8.50;99.90
4429;DHT22;2227;47.810;8.810;2023-12-22T19:24:02;8.50;99.90
4429;DHT22;2227;47.810;8.810;2023-12-22T19:26:29;8.50;99.90
4429;DHT22;2227;47.810;8.810;2023-12-22T19:28:56;8.50;99.90
4429;DHT22;2227;47.810;8.810;2023-12-22T19:31:23;8.50;99.90
4429;DHT22;2227;47.810;8.810;2023-12-22T19:33:55;8.60;99.90
4429;DHT22;2227;47.810;8.810;2023-12-22T19:36:22;8.50;99.90
4429;DHT22;2227;47.810;8.810;2023-12-22T19:38:48;8.50;99.90
4429;DHT22;2227;47.810;8.810;2023-12-22T19:41:15;8.50;99.90
4429;DHT22;2227;47.810;8.810;2023-12-22T19:43:42;8.50;99.90
4429;DHT22;2227;47.810;8.810;2023-12-22T19:46:09;8.30;99.90
4429;DHT22;2227;47.810;8.810;2023-12-22T19:48:37;8.30;99.90
4429;DHT22;2227;47.810;8.810;2023-12-22T19:51:04;8.40;99.90
4429;DHT22;2227;47.810;8.810;2023-12-22T19:53:37;8.50;99.90
4429;DHT22;2227;47.810;8.810;2023-12-22T19:56:04;8.40;99.90
4429;DHT22;2227;47.810;8.810;2023-12-22T19:58:31;8.30;99.90
4429;DHT22;2227;47.810;8.810;2023-12-22T20:00:58;8.30;99.90
4429;DHT22;2227;47.810;8.810;2023-12-22T20:03:24;8.30;99.90
4429;DHT22;2227;47.810;8.810;2023-12-22T20:05:53;8.30;99.90
4429;DHT22;2227;47.810;8.810;2023-12-22T20:08:21;8.30;99.90
4429;DHT22;2227;47.810;8.810;2023-12-22T20:10:48;8.30;99.90
4429;DHT22;2227;47.810;8.810;2023-12-22T20:13:16;8.30;99.90
4429;DHT22;2227;47.810;8.810;2023-12-22T20:15:45;8.30;99.90
4429;DHT22;2227;47.810;8.810;2023-12-22T20:18:12;8.30;99.90
4429;DHT22;2227;47.810;8.810;2023-12-22T20:20:39;8.30;99.90
4429;DHT22;2227;47.810;8.810;2023-12-22T20:23:06;8.40;99.90
4429;DHT22;2227;47.810;8.810;2023-12-22T20:25:35;8.30;99.90
4429;DHT22;2227;47.810;8.810;2023-12-22T20:28:02;8.30;99.90
4429;DHT22;2227;47.810;8.810;2023-12-22T20:30:29;8.30;99.90
4429;DHT22;2227;47.810;8.810;2023-12-22T20:32:56;8.30;99.90
4429;DHT22;2227;47.810;8.810;2023-12-22T20:35:23;8.20;99.90
4429;DHT22;2227;47.810;8.810;2023-12-22T20:37:50;8.20;99.90
4429;DHT22;2227;47.810;8.810;2023-12-22T20:40:17;8.20;99.90
4429;DHT22;2227;47.810;8.810;2023-12-22T20:42:43;8.20;99.90
4429;DHT22;2227;47.810;8.810;2023-12-22T20:45:10;8.20;99.90
4429;DHT22;2227;47.810;8.810;2023-12-22T20:47:37;8.20;99.90
4429;DHT22;2227;47.810;8.810;2023-12-22T20:50:04;8.20;99.90
4429;DHT22;2227;47.810;8.810;2023-12-22T20:52:32;8.10;99.90
4429;DHT22;2227;47.810;8.810;2023-12-22T20:55:01;8.10;99.90
4429;DHT22;2227;47.810;8.810;2023-12-22T20:57:27;8.10;99.90
4429;DHT22;2227;47.810;8.810;2023-12-22T20:59:54;8.10;99.90
4429;DHT22;2227;47.810;8.810;2023-12-22T21:02:21;8.10;99.90
4429;DHT22;2227;47.810;8.810;2023-12-22T21:04:48;8.10;99.90
4429;DHT22;2227;47.810;8.810;2023-12-22T21:07:17;8.10;99.90
4429;DHT22;2227;47.810;8.810;2023-12-22T21:09:50;8.10;99.90
4429;DHT22;2227;47.810;8.810;2023-12-22T21:12:17;8.10;99.90
4429;DHT22;2227;47.810;8.810;2023-12-22T21:14:44;8.00;99.90
4429;DHT22;2227;47.810;8.810;2023-12-22T21:17:16;8.00;99.90
4429;DHT22;2227;47.810;8.810;2023-12-22T21:19:43;8.10;99.90